Time,TemperatureF,DewpointF,PressureIn,WindDirection,WindDirectionDegrees,WindSpeedMPH,WindSpeedGustMPH,Humidity,HourlyPrecipIn,Conditions,Clouds,dailyrainin,SoftwareType,DateUTC
2013-06-03 00:00:00,80.2,38.0,29.60,ENE,68,0.0,2.0,22,0.00,,---,0.00,VWS V14.01,2013-06-03 07:00:00,
2013-06-03 00:04:00,80.3,38.0,29.60,NNW,338,0.0,2.0,22,0.00,,---,0.00,VWS V14.01,2013-06-03 07:04:00,
2013-06-03 00:09:00,79.9,37.7,29.60,NNW,334,0.0,1.0,22,0.00,,---,0.00,VWS V14.01,2013-06-03 07:09:00,
2013-06-03 00:14:00,79.4,38.4,29.60,NNW,334,1.0,1.0,23,0.00,,---,0.00,VWS V14.01,2013-06-03 07:14:00,
2013-06-03 00:19:00,79.5,38.5,29.60,NNW,334,1.0,1.0,23,0.00,,---,0.00,VWS V14.01,2013-06-03 07:19:00,
2013-06-03 00:25:00,79.2,38.2,29.60,NE,37,0.0,2.0,23,0.00,,---,0.00,VWS V14.01,2013-06-03 07:25:00,
2013-06-03 00:30:00,78.8,37.9,29.60,NE,37,1.0,2.0,23,0.00,,---,0.00,VWS V14.01,2013-06-03 07:30:00,
2013-06-03 00:35:00,78.7,37.8,29.60,NE,37,0.0,0.0,23,0.00,,---,0.00,VWS V14.01,2013-06-03 07:35:00,
2013-06-03 00:40:00,79.4,37.3,29.60,NE,56,0.0,2.0,22,0.00,,---,0.00,VWS V14.01,2013-06-03 07:40:00,
2013-06-03 00:45:00,79.8,37.6,29.60,NE,56,0.0,2.0,22,0.00,,---,0.00,VWS V14.01,2013-06-03 07:45:00,
2013-06-03 00:50:00,79.7,37.5,29.60,NE,51,0.0,2.0,22,0.00,,---,0.00,VWS V14.01,2013-06-03 07:50:00,
2013-06-03 00:55:00,79.5,38.5,29.60,NW,322,0.0,2.0,23,0.00,,---,0.00,VWS V14.01,2013-06-03 07:55:00,
2013-06-03 01:00:00,78.9,38.0,29.60,NW,322,0.0,2.0,23,0.00,,---,0.00,VWS V14.01,2013-06-03 08:00:00,
2013-06-03 01:05:00,78.0,38.3,29.60,NW,325,0.0,0.0,24,0.00,,---,0.00,VWS V14.01,2013-06-03 08:05:00,
2013-06-03 01:10:00,77.4,38.9,29.60,NW,325,0.0,0.0,25,0.00,,---,0.00,VWS V14.01,2013-06-03 08:10:00,
2013-06-03 01:15:00,77.3,38.8,29.60,NW,325,0.0,0.0,25,0.00,,---,0.00,VWS V14.01,2013-06-03 08:15:00,
2013-06-03 01:20:00,77.4,38.9,29.60,NW,324,0.0,1.0,25,0.00,,---,0.00,VWS V14.01,2013-06-03 08:20:00,
2013-06-03 01:25:00,77.3,38.8,29.61,NW,315,0.0,1.0,25,0.00,,---,0.00,VWS V14.01,2013-06-03 08:25:00,
2013-06-03 01:30:00,77.2,38.7,29.61,NW,315,0.0,1.0,25,0.00,,---,0.00,VWS V14.01,2013-06-03 08:30:00,
2013-06-03 01:31:00,77.2,38.7,29.61,NW,315,0.0,1.0,25,0.00,,---,0.00,VWS V14.01,2013-06-03 08:31:00,
2013-06-03 01:36:00,77.2,38.7,29.61,NW,315,0.0,0.0,25,0.00,,---,0.00,VWS V14.01,2013-06-03 08:36:00,
2013-06-03 01:41:00,76.9,39.4,29.61,NW,315,0.0,0.0,26,0.00,,---,0.00,VWS V14.01,2013-06-03 08:41:00,
2013-06-03 01:46:00,76.4,39.0,29.61,South,191,1.0,2.0,26,0.00,,---,0.00,VWS V14.01,2013-06-03 08:46:00,
2013-06-03 01:51:00,75.1,38.9,29.61,SE,139,0.0,2.0,27,0.00,,---,0.00,VWS V14.01,2013-06-03 08:51:00,
2013-06-03 01:56:00,74.3,38.2,29.61,SE,134,0.0,2.0,27,0.00,,---,0.00,VWS V14.01,2013-06-03 08:56:00,
2013-06-03 02:00:00,74.6,39.4,29.61,South,180,0.0,2.0,28,0.00,,---,0.00,VWS V14.01,2013-06-03 09:00:00,
2013-06-03 02:01:00,74.4,39.2,29.61,SE,134,0.0,2.0,28,0.00,,---,0.00,VWS V14.01,2013-06-03 09:01:00,
2013-06-03 02:06:00,74.6,39.4,29.61,SE,134,0.0,0.0,28,0.00,,---,0.00,VWS V14.01,2013-06-03 09:06:00,
2013-06-03 02:11:00,74.8,39.5,29.61,SE,134,0.0,0.0,28,0.00,,---,0.00,VWS V14.01,2013-06-03 09:11:00,
2013-06-03 02:16:00,74.6,39.4,29.61,SE,134,0.0,0.0,28,0.00,,---,0.00,VWS V14.01,2013-06-03 09:16:00,
2013-06-03 02:21:00,74.9,38.7,29.61,SSE,165,0.0,3.0,27,0.00,,---,0.00,VWS V14.01,2013-06-03 09:21:00,
2013-06-03 02:26:00,74.5,38.4,29.61,SW,223,0.0,3.0,27,0.00,,---,0.00,VWS V14.01,2013-06-03 09:26:00,
2013-06-03 02:30:00,74.8,36.7,29.61,SW,225,0.0,5.0,25,0.00,,---,0.00,VWS V14.01,2013-06-03 09:30:00,
2013-06-03 02:31:00,74.5,37.4,29.61,East,89,1.0,5.0,26,0.00,,---,0.00,VWS V14.01,2013-06-03 09:31:00,
2013-06-03 02:36:00,75.2,37.0,29.61,SE,125,1.0,4.0,25,0.00,,---,0.00,VWS V14.01,2013-06-03 09:36:00,
2013-06-03 02:42:00,76.2,34.6,29.61,ESE,122,0.0,4.0,22,0.00,,---,0.00,VWS V14.01,2013-06-03 09:42:00,
2013-06-03 02:47:00,77.2,34.3,29.61,SE,134,0.0,4.0,21,0.00,,---,0.00,VWS V14.01,2013-06-03 09:47:00,
2013-06-03 02:52:00,78.1,33.8,29.61,SE,139,1.0,5.0,20,0.00,,---,0.00,VWS V14.01,2013-06-03 09:52:00,
2013-06-03 02:57:00,79.0,33.3,29.61,ENE,61,0.0,6.0,19,0.00,,---,0.00,VWS V14.01,2013-06-03 09:57:00,
2013-06-03 03:00:00,77.6,33.4,29.61,SE,135,1.0,6.0,20,0.00,,---,0.00,VWS V14.01,2013-06-03 10:00:00,
2013-06-03 03:02:00,78.2,33.9,29.61,East,80,0.0,6.0,20,0.00,,---,0.00,VWS V14.01,2013-06-03 10:02:00,
2013-06-03 03:07:00,77.3,33.1,29.61,East,82,0.0,0.0,20,0.00,,---,0.00,VWS V14.01,2013-06-03 10:07:00,
2013-06-03 03:12:00,76.7,32.7,29.61,SW,219,0.0,2.0,20,0.00,,---,0.00,VWS V14.01,2013-06-03 10:12:00,
2013-06-03 03:17:00,76.7,32.7,29.61,South,170,0.0,2.0,20,0.00,,---,0.00,VWS V14.01,2013-06-03 10:17:00,
2013-06-03 03:22:00,76.8,32.7,29.61,SE,143,0.0,2.0,20,0.00,,---,0.00,VWS V14.01,2013-06-03 10:22:00,
2013-06-03 03:27:00,76.5,33.7,29.61,SE,138,1.0,2.0,21,0.00,,---,0.00,VWS V14.01,2013-06-03 10:27:00,
2013-06-03 03:30:00,75.5,34.0,29.61,SSE,158,0.0,2.0,22,0.00,,---,0.00,VWS V14.01,2013-06-03 10:30:00,
2013-06-03 03:32:00,75.7,34.2,29.61,SE,139,0.0,2.0,22,0.00,,---,0.00,VWS V14.01,2013-06-03 10:32:00,
2013-06-03 03:37:00,75.4,34.0,29.61,NNE,24,0.0,1.0,22,0.00,,---,0.00,VWS V14.01,2013-06-03 10:37:00,
2013-06-03 03:42:00,74.7,33.4,29.61,NNE,13,0.0,2.0,22,0.00,,---,0.00,VWS V14.01,2013-06-03 10:42:00,
2013-06-03 03:47:00,75.0,32.5,29.61,NNE,30,0.0,2.0,21,0.00,,---,0.00,VWS V14.01,2013-06-03 10:47:00,
2013-06-03 03:52:00,74.8,32.3,29.62,NNE,30,0.0,2.0,21,0.00,,---,0.00,VWS V14.01,2013-06-03 10:52:00,
2013-06-03 03:57:00,74.7,32.2,29.62,NNE,30,0.0,2.0,21,0.00,,---,0.00,VWS V14.01,2013-06-03 10:57:00,
2013-06-03 04:00:00,74.4,33.1,29.62,NNE,22,0.0,2.0,22,0.00,,---,0.00,VWS V14.01,2013-06-03 11:00:00,
2013-06-03 04:02:00,74.6,32.1,29.62,NNE,30,0.0,2.0,21,0.00,,---,0.00,VWS V14.01,2013-06-03 11:02:00,
2013-06-03 04:08:00,73.5,34.5,29.62,NE,35,1.0,1.0,24,0.00,,---,0.00,VWS V14.01,2013-06-03 11:08:00,
2013-06-03 04:13:00,71.8,34.1,29.62,NE,46,0.0,2.0,25,0.00,,---,0.00,VWS V14.01,2013-06-03 11:13:00,
2013-06-03 04:18:00,70.7,34.2,29.62,NNE,32,2.0,3.0,26,0.00,,---,0.00,VWS V14.01,2013-06-03 11:18:00,
2013-06-03 04:23:00,70.0,34.5,29.62,NNE,18,1.0,3.0,27,0.00,,---,0.00,VWS V14.01,2013-06-03 11:23:00,
2013-06-03 04:28:00,69.8,34.3,29.62,NE,46,0.0,3.0,27,0.00,,---,0.00,VWS V14.01,2013-06-03 11:28:00,
2013-06-03 04:30:00,69.4,34.0,29.62,NNE,22,1.0,3.0,27,0.00,,---,0.00,VWS V14.01,2013-06-03 11:30:00,
2013-06-03 04:33:00,69.5,34.1,29.62,NNE,27,0.0,3.0,27,0.00,,---,0.00,VWS V14.01,2013-06-03 11:33:00,
2013-06-03 04:38:00,69.7,33.3,29.62,North,4,0.0,0.0,26,0.00,,---,0.00,VWS V14.01,2013-06-03 11:38:00,
2013-06-03 04:43:00,70.6,32.1,29.62,North,7,0.0,1.0,24,0.00,,---,0.00,VWS V14.01,2013-06-03 11:43:00,
2013-06-03 04:48:00,71.5,32.8,29.62,North,9,0.0,1.0,24,0.00,,---,0.00,VWS V14.01,2013-06-03 11:48:00,
2013-06-03 04:53:00,72.0,32.2,29.63,North,9,0.0,1.0,23,0.00,,---,0.00,VWS V14.01,2013-06-03 11:53:00,
2013-06-03 04:58:00,72.2,32.4,29.63,North,6,0.0,1.0,23,0.00,,---,0.00,VWS V14.01,2013-06-03 11:58:00,
2013-06-03 05:00:00,72.2,32.4,29.63,North,0,0.0,1.0,23,0.00,,---,0.00,VWS V14.01,2013-06-03 12:00:00,
2013-06-03 05:04:00,72.3,32.5,29.63,North,5,0.0,1.0,23,0.00,,---,0.00,VWS V14.01,2013-06-03 12:04:00,
2013-06-03 05:09:00,72.7,32.8,29.63,NW,308,1.0,1.0,23,0.00,,---,0.00,VWS V14.01,2013-06-03 12:09:00,
2013-06-03 05:14:00,72.3,32.5,29.63,ENE,67,0.0,3.0,23,0.00,,---,0.00,VWS V14.01,2013-06-03 12:14:00,
2013-06-03 05:19:00,72.3,33.5,29.63,NE,46,1.0,3.0,24,0.00,,---,0.00,VWS V14.01,2013-06-03 12:19:00,
2013-06-03 05:24:00,72.0,32.2,29.64,ENE,74,0.0,4.0,23,0.00,,---,0.00,VWS V14.01,2013-06-03 12:24:00,
2013-06-03 05:29:00,72.0,31.1,29.64,East,96,0.0,4.0,22,0.00,,---,0.00,VWS V14.01,2013-06-03 12:29:00,
2013-06-03 05:30:00,72.0,33.3,29.64,ENE,68,0.0,4.0,24,0.00,,---,0.00,VWS V14.01,2013-06-03 12:30:00,
2013-06-03 05:34:00,72.0,33.3,29.64,NNE,14,0.0,4.0,24,0.00,,---,0.00,VWS V14.01,2013-06-03 12:34:00,
2013-06-03 05:39:00,71.5,32.8,29.64,NNE,14,0.0,0.0,24,0.00,,---,0.00,VWS V14.01,2013-06-03 12:39:00,
2013-06-03 05:44:00,70.9,33.4,29.64,NNE,23,3.0,4.0,25,0.00,,---,0.00,VWS V14.01,2013-06-03 12:44:00,
2013-06-03 05:49:00,70.5,33.0,29.64,North,357,0.0,4.0,25,0.00,,---,0.00,VWS V14.01,2013-06-03 12:49:00,
2013-06-03 05:54:00,70.8,33.3,29.64,NNE,13,1.0,4.0,25,0.00,,---,0.00,VWS V14.01,2013-06-03 12:54:00,
2013-06-03 05:59:00,71.1,33.5,29.64,NNE,31,0.0,4.0,25,0.00,,---,0.00,VWS V14.01,2013-06-03 12:59:00,
2013-06-03 06:00:00,71.8,34.1,29.64,North,0,1.0,4.0,25,0.00,,---,0.00,VWS V14.01,2013-06-03 13:00:00,
2013-06-03 06:04:00,71.8,34.1,29.64,North,352,1.0,4.0,25,0.00,,---,0.00,VWS V14.01,2013-06-03 13:04:00,
2013-06-03 06:10:00,72.8,33.9,29.65,North,352,1.0,2.0,24,0.00,,---,0.00,VWS V14.01,2013-06-03 13:10:00,
2013-06-03 06:15:00,73.7,36.7,29.65,North,6,0.0,2.0,26,0.00,,---,0.00,VWS V14.01,2013-06-03 13:15:00,
2013-06-03 06:20:00,74.2,37.1,29.65,North,1,3.0,3.0,26,0.00,,---,0.00,VWS V14.01,2013-06-03 13:20:00,
2013-06-03 06:25:00,74.7,35.5,29.65,North,6,0.0,5.0,24,0.00,,---,0.00,VWS V14.01,2013-06-03 13:25:00,
2013-06-03 06:30:00,76.0,36.6,29.65,North,356,1.0,5.0,24,0.00,,---,0.00,VWS V14.01,2013-06-03 13:30:00,
2013-06-03 06:35:00,76.8,36.2,29.65,SSW,210,4.0,4.0,23,0.00,,---,0.00,VWS V14.01,2013-06-03 13:35:00,
2013-06-03 06:40:00,78.8,35.6,29.65,ENE,74,0.0,4.0,21,0.00,,---,0.00,VWS V14.01,2013-06-03 13:40:00,
2013-06-03 06:45:00,79.9,32.7,29.65,WSW,257,0.0,4.0,18,0.00,,---,0.00,VWS V14.01,2013-06-03 13:45:00,
2013-06-03 06:50:00,80.8,32.0,29.66,SE,131,1.0,4.0,17,0.00,,---,0.00,VWS V14.01,2013-06-03 13:50:00,
2013-06-03 06:55:00,81.8,32.8,29.66,WNW,287,0.0,4.0,17,0.00,,---,0.00,VWS V14.01,2013-06-03 13:55:00,
2013-06-03 07:00:00,82.0,32.9,29.66,West,262,0.0,4.0,17,0.00,,---,0.00,VWS V14.01,2013-06-03 14:00:00,
2013-06-03 07:05:00,82.6,31.9,29.66,SW,231,2.0,4.0,16,0.00,,---,0.00,VWS V14.01,2013-06-03 14:05:00,
2013-06-03 07:10:00,83.2,32.4,29.66,SSW,203,5.0,7.0,16,0.00,,---,0.00,VWS V14.01,2013-06-03 14:10:00,
2013-06-03 07:15:00,83.9,29.6,29.66,South,173,4.0,8.0,14,0.00,,---,0.00,VWS V14.01,2013-06-03 14:15:00,
2013-06-03 07:20:00,84.5,30.1,29.66,SW,232,3.0,8.0,14,0.00,,---,0.00,VWS V14.01,2013-06-03 14:20:00,
2013-06-03 07:25:00,84.7,30.3,29.66,SSE,159,2.0,9.0,14,0.00,,---,0.00,VWS V14.01,2013-06-03 14:25:00,
2013-06-03 07:30:00,85.1,30.6,29.67,ESE,120,8.0,10.0,14,0.00,,---,0.00,VWS V14.01,2013-06-03 14:30:00,
2013-06-03 07:36:00,85.2,28.9,29.67,SW,219,2.0,7.0,13,0.00,,---,0.00,VWS V14.01,2013-06-03 14:36:00,
2013-06-03 07:41:00,85.4,29.0,29.67,SSW,193,5.0,10.0,13,0.00,,---,0.00,VWS V14.01,2013-06-03 14:41:00,
2013-06-03 07:46:00,85.6,29.2,29.67,SSW,212,9.0,12.0,13,0.00,,---,0.00,VWS V14.01,2013-06-03 14:46:00,
2013-06-03 07:51:00,85.7,29.2,29.67,SSE,167,5.0,12.0,13,0.00,,---,0.00,VWS V14.01,2013-06-03 14:51:00,
2013-06-03 07:56:00,86.0,31.3,29.67,SSW,213,5.0,12.0,14,0.00,,---,0.00,VWS V14.01,2013-06-03 14:56:00,
2013-06-03 08:00:00,86.1,31.4,29.68,SW,225,6.0,14.0,14,0.00,,---,0.00,VWS V14.01,2013-06-03 15:00:00,
2013-06-03 08:01:00,85.9,31.2,29.68,SW,224,6.0,14.0,14,0.00,,---,0.00,VWS V14.01,2013-06-03 15:01:00,
2013-06-03 08:06:00,86.1,29.6,29.68,WSW,250,9.0,11.0,13,0.00,,---,0.00,VWS V14.01,2013-06-03 15:06:00,
2013-06-03 08:11:00,86.1,31.4,29.68,SSE,148,5.0,15.0,14,0.00,,---,0.00,VWS V14.01,2013-06-03 15:11:00,
2013-06-03 08:17:00,86.5,29.9,29.68,ESE,102,7.0,15.0,13,0.00,,---,0.00,VWS V14.01,2013-06-03 15:17:00,
2013-06-03 08:22:00,86.7,30.0,29.68,South,184,8.0,15.0,13,0.00,,---,0.00,VWS V14.01,2013-06-03 15:22:00,
2013-06-03 08:27:00,87.0,28.3,29.68,WSW,240,8.0,15.0,12,0.00,,---,0.00,VWS V14.01,2013-06-03 15:27:00,
2013-06-03 08:30:00,87.5,28.7,29.68,SW,225,6.0,15.0,12,0.00,,---,0.00,VWS V14.01,2013-06-03 15:30:00,
2013-06-03 08:32:00,87.3,28.5,29.68,SSW,207,7.0,15.0,12,0.00,,---,0.00,VWS V14.01,2013-06-03 15:32:00,
2013-06-03 08:37:00,87.9,26.9,29.68,SSW,195,4.0,8.0,11,0.00,,---,0.00,VWS V14.01,2013-06-03 15:37:00,
2013-06-03 08:42:00,88.4,29.4,29.68,WSW,248,8.0,10.0,12,0.00,,---,0.00,VWS V14.01,2013-06-03 15:42:00,
2013-06-03 08:47:00,88.6,27.4,29.68,South,175,8.0,13.0,11,0.00,,---,0.00,VWS V14.01,2013-06-03 15:47:00,
2013-06-03 08:52:00,88.8,27.6,29.69,SSW,205,7.0,13.0,11,0.00,,---,0.00,VWS V14.01,2013-06-03 15:52:00,
2013-06-03 08:57:00,89.1,27.8,29.68,SW,229,10.0,13.0,11,0.00,,---,0.00,VWS V14.01,2013-06-03 15:57:00,
2013-06-03 09:00:00,88.8,29.7,29.69,South,180,6.0,14.0,12,0.00,,---,0.00,VWS V14.01,2013-06-03 16:00:00,
2013-06-03 09:03:00,88.8,29.7,29.69,SSW,212,13.0,13.0,12,0.00,,---,0.00,VWS V14.01,2013-06-03 16:03:00,
2013-06-03 09:08:00,89.2,30.0,29.69,SW,232,13.0,13.0,12,0.00,,---,0.00,VWS V14.01,2013-06-03 16:08:00,
2013-06-03 09:13:00,89.2,30.0,29.69,SW,224,6.0,13.0,12,0.00,,---,0.00,VWS V14.01,2013-06-03 16:13:00,
2013-06-03 09:18:00,89.2,30.0,29.69,SSE,158,8.0,13.0,12,0.00,,---,0.00,VWS V14.01,2013-06-03 16:18:00,
2013-06-03 09:23:00,89.3,30.1,29.69,South,169,3.0,13.0,12,0.00,,---,0.00,VWS V14.01,2013-06-03 16:23:00,
2013-06-03 09:28:00,89.6,30.3,29.69,WSW,248,4.0,13.0,12,0.00,,---,0.00,VWS V14.01,2013-06-03 16:28:00,
2013-06-03 09:30:00,89.7,30.4,29.69,SW,225,6.0,15.0,12,0.00,,---,0.00,VWS V14.01,2013-06-03 16:30:00,
2013-06-03 09:33:00,89.8,30.5,29.69,SSE,166,6.0,15.0,12,0.00,,---,0.00,VWS V14.01,2013-06-03 16:33:00,
2013-06-03 09:38:00,89.9,28.4,29.69,SW,235,7.0,14.0,11,0.00,,---,0.00,VWS V14.01,2013-06-03 16:38:00,
2013-06-03 09:43:00,90.1,30.7,29.68,SSW,200,6.0,14.0,12,0.00,,---,0.00,VWS V14.01,2013-06-03 16:43:00,
2013-06-03 09:48:00,90.4,30.9,29.69,SSW,195,4.0,14.0,12,0.00,,---,0.00,VWS V14.01,2013-06-03 16:48:00,
2013-06-03 09:53:00,90.9,29.2,29.68,SSE,159,4.0,14.0,11,0.00,,---,0.00,VWS V14.01,2013-06-03 16:53:00,
2013-06-03 09:58:00,90.9,29.2,29.68,SSE,148,5.0,14.0,11,0.00,,---,0.00,VWS V14.01,2013-06-03 16:58:00,
2013-06-03 10:00:00,91.3,29.5,29.68,SSW,202,6.0,14.0,11,0.00,,---,0.00,VWS V14.01,2013-06-03 17:00:00,
2013-06-03 10:03:00,91.2,29.4,29.68,SW,221,5.0,14.0,11,0.00,,---,0.00,VWS V14.01,2013-06-03 17:03:00,
2013-06-03 10:09:00,91.5,27.3,29.68,SSE,153,6.0,13.0,10,0.00,,---,0.00,VWS V14.01,2013-06-03 17:09:00,
2013-06-03 10:14:00,91.5,29.6,29.69,SSE,157,5.0,13.0,11,0.00,,---,0.00,VWS V14.01,2013-06-03 17:14:00,
2013-06-03 10:19:00,92.1,27.8,29.68,SSW,201,4.0,13.0,10,0.00,,---,0.00,VWS V14.01,2013-06-03 17:19:00,
2013-06-03 10:24:00,92.5,28.1,29.68,South,191,8.0,13.0,10,0.00,,---,0.00,VWS V14.01,2013-06-03 17:24:00,
2013-06-03 10:29:00,92.6,28.2,29.69,SSE,167,10.0,15.0,10,0.00,,---,0.00,VWS V14.01,2013-06-03 17:29:00,
2013-06-03 10:30:00,92.8,25.8,29.68,SSW,202,6.0,16.0,9,0.00,,---,0.00,VWS V14.01,2013-06-03 17:30:00,
2013-06-03 10:34:00,92.9,28.4,29.68,WSW,249,6.0,15.0,10,0.00,,---,0.00,VWS V14.01,2013-06-03 17:34:00,
2013-06-03 10:39:00,93.0,25.9,29.68,SSW,198,4.0,9.0,9,0.00,,---,0.00,VWS V14.01,2013-06-03 17:39:00,
2013-06-03 10:44:00,93.4,28.8,29.68,SSE,163,4.0,12.0,10,0.00,,---,0.00,VWS V14.01,2013-06-03 17:44:00,
2013-06-03 10:49:00,93.6,26.4,29.68,SSE,160,2.0,12.0,9,0.00,,---,0.00,VWS V14.01,2013-06-03 17:49:00,
2013-06-03 10:54:00,93.9,29.1,29.68,SSW,203,5.0,12.0,10,0.00,,---,0.00,VWS V14.01,2013-06-03 17:54:00,
2013-06-03 10:59:00,94.0,29.2,29.68,East,93,3.0,12.0,10,0.00,,---,0.00,VWS V14.01,2013-06-03 17:59:00,
2013-06-03 11:00:00,94.1,26.7,29.68,SSW,202,4.0,12.0,9,0.00,,---,0.00,VWS V14.01,2013-06-03 18:00:00,
2013-06-03 11:04:00,94.2,26.8,29.68,SSW,211,2.0,12.0,9,0.00,,---,0.00,VWS V14.01,2013-06-03 18:04:00,
2013-06-03 11:09:00,94.4,27.0,29.68,SSW,205,3.0,8.0,9,0.00,,---,0.00,VWS V14.01,2013-06-03 18:09:00,
2013-06-03 11:14:00,94.9,27.3,29.67,South,191,5.0,8.0,9,0.00,,---,0.00,VWS V14.01,2013-06-03 18:14:00,
2013-06-03 11:19:00,94.7,27.2,29.67,West,260,8.0,13.0,9,0.00,,---,0.00,VWS V14.01,2013-06-03 18:19:00,
2013-06-03 11:24:00,95.0,27.4,29.67,SE,125,2.0,13.0,9,0.00,,---,0.00,VWS V14.01,2013-06-03 18:24:00,
2013-06-03 11:30:00,95.7,25.1,29.67,SSE,158,2.0,13.0,8,0.00,,---,0.00,VWS V14.01,2013-06-03 18:30:00,
2013-06-03 11:35:00,95.9,25.2,29.67,SSE,150,5.0,13.0,8,0.00,,---,0.00,VWS V14.01,2013-06-03 18:35:00,
2013-06-03 11:40:00,95.9,25.2,29.67,South,186,6.0,11.0,8,0.00,,---,0.00,VWS V14.01,2013-06-03 18:40:00,
2013-06-03 11:45:00,96.0,25.3,29.67,East,101,3.0,11.0,8,0.00,,---,0.00,VWS V14.01,2013-06-03 18:45:00,
2013-06-03 11:50:00,96.0,25.3,29.67,SSW,212,7.0,11.0,8,0.00,,---,0.00,VWS V14.01,2013-06-03 18:50:00,
2013-06-03 11:55:00,96.0,28.1,29.66,WSW,240,3.0,11.0,9,0.00,,---,0.00,VWS V14.01,2013-06-03 18:55:00,
2013-06-03 12:00:00,96.2,25.4,29.66,West,281,3.0,12.0,8,0.00,,---,0.00,VWS V14.01,2013-06-03 19:00:00,
2013-06-03 12:05:00,96.8,19.1,29.66,SSW,208,3.0,13.0,6,0.00,,---,0.00,VWS V14.01,2013-06-03 19:05:00,
2013-06-03 12:10:00,96.9,19.1,29.66,WSW,248,8.0,22.0,6,0.00,,---,0.00,VWS V14.01,2013-06-03 19:10:00,
2013-06-03 12:15:00,97.5,19.6,29.66,WSW,239,10.0,22.0,6,0.00,,---,0.00,VWS V14.01,2013-06-03 19:15:00,
2013-06-03 12:20:00,97.5,19.6,29.65,South,172,6.0,22.0,6,0.00,,---,0.00,VWS V14.01,2013-06-03 19:20:00,
2013-06-03 12:25:00,97.3,19.4,29.65,SSE,153,6.0,22.0,6,0.00,,---,0.00,VWS V14.01,2013-06-03 19:25:00,
2013-06-03 12:30:00,96.8,19.1,29.65,WSW,253,15.0,22.0,6,0.00,,---,0.00,VWS V14.01,2013-06-03 19:30:00,
2013-06-03 12:35:00,96.8,19.1,29.65,South,183,3.0,10.0,6,0.00,,---,0.00,VWS V14.01,2013-06-03 19:35:00,
2013-06-03 12:40:00,97.1,19.3,29.65,WSW,240,9.0,16.0,6,0.00,,---,0.00,VWS V14.01,2013-06-03 19:40:00,
2013-06-03 12:45:00,97.2,19.4,29.65,SW,215,6.0,16.0,6,0.00,,---,0.00,VWS V14.01,2013-06-03 19:45:00,
2013-06-03 12:50:00,97.1,15.1,29.65,WSW,253,9.0,16.0,5,0.00,,---,0.00,VWS V14.01,2013-06-03 19:50:00,
2013-06-03 12:55:00,97.7,15.5,29.64,West,266,4.0,16.0,5,0.00,,---,0.00,VWS V14.01,2013-06-03 19:55:00,
2013-06-03 13:00:00,98.1,20.0,29.64,SSW,210,10.0,16.0,6,0.00,,---,0.00,VWS V14.01,2013-06-03 20:00:00,
2013-06-03 13:06:00,97.9,19.9,29.64,South,183,6.0,12.0,6,0.00,,---,0.00,VWS V14.01,2013-06-03 20:06:00,
2013-06-03 13:11:00,97.6,19.6,29.64,SW,221,4.0,15.0,6,0.00,,---,0.00,VWS V14.01,2013-06-03 20:11:00,
2013-06-03 13:16:00,97.8,19.8,29.63,SW,224,7.0,15.0,6,0.00,,---,0.00,VWS V14.01,2013-06-03 20:16:00,
2013-06-03 13:21:00,98.3,15.9,29.63,SE,137,11.0,15.0,5,0.00,,---,0.00,VWS V14.01,2013-06-03 20:21:00,
2013-06-03 13:26:00,98.9,20.6,29.63,West,261,5.0,15.0,6,0.00,,---,0.00,VWS V14.01,2013-06-03 20:26:00,
2013-06-03 13:30:00,99.2,20.8,29.62,SW,225,6.0,15.0,6,0.00,,---,0.00,VWS V14.01,2013-06-03 20:30:00,
2013-06-03 13:31:00,99.0,20.6,29.63,South,177,6.0,15.0,6,0.00,,---,0.00,VWS V14.01,2013-06-03 20:31:00,
2013-06-03 13:36:00,99.3,24.5,29.62,WSW,256,7.0,13.0,7,0.00,,---,0.00,VWS V14.01,2013-06-03 20:36:00,
2013-06-03 13:42:00,98.9,20.6,29.63,SE,141,6.0,14.0,6,0.00,,---,0.00,VWS V14.01,2013-06-03 20:42:00,
2013-06-03 13:47:00,98.7,20.4,29.62,WSW,242,8.0,16.0,6,0.00,,---,0.00,VWS V14.01,2013-06-03 20:47:00,
2013-06-03 13:52:00,98.5,20.3,29.62,SSW,203,3.0,16.0,6,0.00,,---,0.00,VWS V14.01,2013-06-03 20:52:00,
2013-06-03 13:57:00,98.8,24.1,29.62,SW,228,9.0,16.0,7,0.00,,---,0.00,VWS V14.01,2013-06-03 20:57:00,
2013-06-03 14:00:00,98.6,27.2,29.62,SW,225,6.0,16.0,8,0.00,,---,0.00,VWS V14.01,2013-06-03 21:00:00,
2013-06-03 14:02:00,98.5,23.9,29.62,SSW,200,3.0,16.0,7,0.00,,---,0.00,VWS V14.01,2013-06-03 21:02:00,
2013-06-03 14:07:00,98.6,27.2,29.62,WSW,253,7.0,8.0,8,0.00,,---,0.00,VWS V14.01,2013-06-03 21:07:00,
2013-06-03 14:12:00,99.0,24.3,29.62,ESE,114,3.0,16.0,7,0.00,,---,0.00,VWS V14.01,2013-06-03 21:12:00,
2013-06-03 14:17:00,98.6,24.0,29.62,SW,222,5.0,16.0,7,0.00,,---,0.00,VWS V14.01,2013-06-03 21:17:00,
2013-06-03 14:22:00,98.7,24.1,29.61,WSW,253,4.0,16.0,7,0.00,,---,0.00,VWS V14.01,2013-06-03 21:22:00,
2013-06-03 14:27:00,99.1,20.7,29.61,SSE,152,4.0,16.0,6,0.00,,---,0.00,VWS V14.01,2013-06-03 21:27:00,
2013-06-03 14:30:00,99.5,21.0,29.61,WSW,248,4.0,16.0,6,0.00,,---,0.00,VWS V14.01,2013-06-03 21:30:00,
2013-06-03 14:33:00,99.3,20.9,29.61,NNW,347,2.0,16.0,6,0.00,,---,0.00,VWS V14.01,2013-06-03 21:33:00,
2013-06-03 14:38:00,100.0,21.4,29.61,WSW,239,3.0,11.0,6,0.00,,---,0.00,VWS V14.01,2013-06-03 21:38:00,
2013-06-03 14:43:00,100.1,21.4,29.61,South,184,3.0,11.0,6,0.00,,---,0.00,VWS V14.01,2013-06-03 21:43:00,
2013-06-03 14:48:00,100.0,21.4,29.61,West,262,5.0,12.0,6,0.00,,---,0.00,VWS V14.01,2013-06-03 21:48:00,
2013-06-03 14:53:00,99.3,20.9,29.61,WSW,249,3.0,12.0,6,0.00,,---,0.00,VWS V14.01,2013-06-03 21:53:00,
2013-06-03 14:58:00,99.5,16.7,29.61,NW,309,6.0,12.0,5,0.00,,---,0.00,VWS V14.01,2013-06-03 21:58:00,
2013-06-03 15:00:00,99.5,16.7,29.60,WSW,248,5.0,13.0,5,0.00,,---,0.00,VWS V14.01,2013-06-03 22:00:00,
2013-06-03 15:03:00,99.7,16.9,29.60,ESE,119,4.0,13.0,5,0.00,,---,0.00,VWS V14.01,2013-06-03 22:03:00,
2013-06-03 15:08:00,99.9,17.0,29.60,SW,221,4.0,6.0,5,0.00,,---,0.00,VWS V14.01,2013-06-03 22:08:00,
2013-06-03 15:13:00,100.3,17.3,29.60,SW,232,1.0,8.0,5,0.00,,---,0.00,VWS V14.01,2013-06-03 22:13:00,
2013-06-03 15:18:00,100.4,12.3,29.60,WSW,248,9.0,15.0,4,0.00,,---,0.00,VWS V14.01,2013-06-03 22:18:00,
2013-06-03 15:23:00,100.3,12.2,29.60,WSW,243,9.0,15.0,4,0.00,,---,0.00,VWS V14.01,2013-06-03 22:23:00,
2013-06-03 15:29:00,99.8,11.9,29.60,WSW,240,10.0,15.0,4,0.00,,---,0.00,VWS V14.01,2013-06-03 22:29:00,
2013-06-03 15:30:00,100.0,12.0,29.60,WSW,248,6.0,15.0,4,0.00,,---,0.00,VWS V14.01,2013-06-03 22:30:00,
2013-06-03 15:34:00,99.8,11.9,29.60,SW,225,6.0,15.0,4,0.00,,---,0.00,VWS V14.01,2013-06-03 22:34:00,
2013-06-03 15:39:00,99.7,11.8,29.60,WSW,240,3.0,10.0,4,0.00,,---,0.00,VWS V14.01,2013-06-03 22:39:00,
2013-06-03 15:44:00,99.9,11.9,29.60,SSE,150,7.0,16.0,4,0.00,,---,0.00,VWS V14.01,2013-06-03 22:44:00,
2013-06-03 15:49:00,99.4,11.6,29.60,WSW,255,5.0,16.0,4,0.00,,---,0.00,VWS V14.01,2013-06-03 22:49:00,
2013-06-03 15:54:00,99.4,11.6,29.59,WNW,292,1.0,16.0,4,0.00,,---,0.00,VWS V14.01,2013-06-03 22:54:00,
2013-06-03 15:59:00,99.6,11.7,29.59,West,269,8.0,19.0,4,0.00,,---,0.00,VWS V14.01,2013-06-03 22:59:00,
2013-06-03 16:00:00,99.6,11.7,29.59,WSW,248,7.0,19.0,4,0.00,,---,0.00,VWS V14.01,2013-06-03 23:00:00,
2013-06-03 16:04:00,99.6,11.7,29.59,West,262,11.0,19.0,4,0.00,,---,0.00,VWS V14.01,2013-06-03 23:04:00,
2013-06-03 16:09:00,99.8,11.9,29.59,WSW,252,11.0,17.0,4,0.00,,---,0.00,VWS V14.01,2013-06-03 23:09:00,
2013-06-03 16:14:00,99.6,11.7,29.59,SE,130,2.0,17.0,4,0.00,,---,0.00,VWS V14.01,2013-06-03 23:14:00,
2013-06-03 16:19:00,99.6,5.3,29.58,SSW,195,0.0,17.0,3,0.00,,---,0.00,VWS V14.01,2013-06-03 23:19:00,
2013-06-03 16:25:00,99.6,5.3,29.59,West,278,2.0,17.0,3,0.00,,---,0.00,VWS V14.01,2013-06-03 23:25:00,
2013-06-03 16:30:00,99.4,11.6,29.58,WSW,248,10.0,17.0,4,0.00,,---,0.00,VWS V14.01,2013-06-03 23:30:00,
2013-06-03 16:35:00,99.2,11.4,29.58,WSW,254,5.0,5.0,4,0.00,,---,0.00,VWS V14.01,2013-06-03 23:35:00,
2013-06-03 16:40:00,98.8,11.2,29.59,WSW,246,5.0,17.0,4,0.00,,---,0.00,VWS V14.01,2013-06-03 23:40:00,
2013-06-03 16:45:00,98.8,11.2,29.58,West,276,4.0,17.0,4,0.00,,---,0.00,VWS V14.01,2013-06-03 23:45:00,
2013-06-03 16:50:00,98.9,11.2,29.58,SE,146,1.0,17.0,4,0.00,,---,0.00,VWS V14.01,2013-06-03 23:50:00,
2013-06-03 16:55:00,98.7,11.1,29.58,WSW,256,4.0,17.0,4,0.00,,---,0.00,VWS V14.01,2013-06-03 23:55:00,
2013-06-03 17:00:00,98.9,11.2,29.58,WSW,245,8.0,17.0,4,0.00,,---,0.00,VWS V14.01,2013-06-04 00:00:00,
2013-06-03 17:05:00,99.0,11.3,29.58,West,275,4.0,8.0,4,0.00,,---,0.00,VWS V14.01,2013-06-04 00:05:00,
2013-06-03 17:10:00,98.8,4.8,29.58,West,278,8.0,14.0,3,0.00,,---,0.00,VWS V14.01,2013-06-04 00:10:00,
2013-06-03 17:15:00,98.2,10.8,29.58,WNW,286,3.0,15.0,4,0.00,,---,0.00,VWS V14.01,2013-06-04 00:15:00,
2013-06-03 17:20:00,98.3,10.8,29.58,SW,217,9.0,15.0,4,0.00,,---,0.00,VWS V14.01,2013-06-04 00:20:00,
2013-06-03 17:26:00,98.0,10.6,29.58,WNW,287,7.0,20.0,4,0.00,,---,0.00,VWS V14.01,2013-06-04 00:26:00,
2013-06-03 17:30:00,98.1,10.7,29.58,WSW,248,6.0,20.0,4,0.00,,---,0.00,VWS V14.01,2013-06-04 00:30:00,
2013-06-03 17:31:00,98.2,4.4,29.58,SW,232,5.0,20.0,3,0.00,,---,0.00,VWS V14.01,2013-06-04 00:31:00,
2013-06-03 17:36:00,98.1,10.7,29.58,WSW,252,8.0,8.0,4,0.00,,---,0.00,VWS V14.01,2013-06-04 00:36:00,
2013-06-03 17:41:00,97.9,10.6,29.58,WSW,248,6.0,14.0,4,0.00,,---,0.00,VWS V14.01,2013-06-04 00:41:00,
2013-06-03 17:46:00,97.6,4.0,29.58,WSW,238,5.0,14.0,3,0.00,,---,0.00,VWS V14.01,2013-06-04 00:46:00,
2013-06-03 17:51:00,97.7,10.4,29.58,SSW,195,7.0,14.0,4,0.00,,---,0.00,VWS V14.01,2013-06-04 00:51:00,
2013-06-03 17:56:00,97.6,10.4,29.58,West,260,5.0,14.0,4,0.00,,---,0.00,VWS V14.01,2013-06-04 00:56:00,
2013-06-03 18:00:00,97.3,10.2,29.58,WSW,248,6.0,14.0,4,0.00,,---,0.00,VWS V14.01,2013-06-04 01:00:00,
2013-06-03 18:01:00,97.5,10.3,29.58,WSW,257,4.0,14.0,4,0.00,,---,0.00,VWS V14.01,2013-06-04 01:01:00,
2013-06-03 18:06:00,97.3,10.2,29.58,WSW,248,4.0,8.0,4,0.00,,---,0.00,VWS V14.01,2013-06-04 01:06:00,
2013-06-03 18:12:00,97.1,10.0,29.59,WSW,247,3.0,13.0,4,0.00,,---,0.00,VWS V14.01,2013-06-04 01:12:00,
2013-06-03 18:17:00,96.9,9.9,29.59,West,267,7.0,13.0,4,0.00,,---,0.00,VWS V14.01,2013-06-04 01:17:00,
2013-06-03 18:22:00,96.5,9.6,29.59,SW,226,6.0,13.0,4,0.00,,---,0.00,VWS V14.01,2013-06-04 01:22:00,
2013-06-03 18:27:00,96.4,9.6,29.59,SW,235,11.0,13.0,4,0.00,,---,0.00,VWS V14.01,2013-06-04 01:27:00,
2013-06-03 18:30:00,96.1,14.4,29.59,WSW,248,6.0,13.0,5,0.00,,---,0.00,VWS V14.01,2013-06-04 01:30:00,
2013-06-03 18:32:00,96.1,14.4,29.59,WSW,246,4.0,13.0,5,0.00,,---,0.00,VWS V14.01,2013-06-04 01:32:00,
2013-06-03 18:37:00,96.1,14.4,29.59,WSW,253,7.0,11.0,5,0.00,,---,0.00,VWS V14.01,2013-06-04 01:37:00,
2013-06-03 18:42:00,96.0,9.3,29.59,WSW,256,5.0,13.0,4,0.00,,---,0.00,VWS V14.01,2013-06-04 01:42:00,
2013-06-03 18:47:00,95.9,14.2,29.59,WSW,257,6.0,13.0,5,0.00,,---,0.00,VWS V14.01,2013-06-04 01:47:00,
2013-06-03 18:52:00,95.7,14.1,29.59,West,259,2.0,13.0,5,0.00,,---,0.00,VWS V14.01,2013-06-04 01:52:00,
2013-06-03 18:57:00,95.3,13.8,29.60,West,267,3.0,13.0,5,0.00,,---,0.00,VWS V14.01,2013-06-04 01:57:00,
2013-06-03 19:00:00,94.7,17.6,29.60,WSW,248,5.0,13.0,6,0.00,,---,0.00,VWS V14.01,2013-06-04 02:00:00,
2013-06-03 19:02:00,94.8,17.6,29.60,WSW,255,4.0,13.0,6,0.00,,---,0.00,VWS V14.01,2013-06-04 02:02:00,
2013-06-03 19:07:00,94.4,17.4,29.60,WSW,248,4.0,8.0,6,0.00,,---,0.00,VWS V14.01,2013-06-04 02:07:00,
2013-06-03 19:12:00,93.9,17.0,29.60,WSW,243,3.0,8.0,6,0.00,,---,0.00,VWS V14.01,2013-06-04 02:12:00,
2013-06-03 19:17:00,93.4,16.6,29.60,WSW,248,4.0,8.0,6,0.00,,---,0.00,VWS V14.01,2013-06-04 02:17:00,
2013-06-03 19:22:00,92.7,16.1,29.60,WSW,250,2.0,8.0,6,0.00,,---,0.00,VWS V14.01,2013-06-04 02:22:00,
2013-06-03 19:27:00,92.2,15.8,29.60,WSW,249,1.0,8.0,6,0.00,,---,0.00,VWS V14.01,2013-06-04 02:27:00,
2013-06-03 19:30:00,91.5,15.3,29.60,WSW,248,3.0,8.0,6,0.00,,---,0.00,VWS V14.01,2013-06-04 02:30:00,
2013-06-03 19:33:00,91.7,15.4,29.60,West,259,1.0,8.0,6,0.00,,---,0.00,VWS V14.01,2013-06-04 02:33:00,
2013-06-03 19:38:00,91.4,18.8,29.60,WSW,245,2.0,5.0,7,0.00,,---,0.00,VWS V14.01,2013-06-04 02:38:00,
2013-06-03 19:43:00,90.9,18.4,29.60,WSW,244,1.0,5.0,7,0.00,,---,0.00,VWS V14.01,2013-06-04 02:43:00,
2013-06-03 19:48:00,90.6,18.2,29.60,West,259,1.0,5.0,7,0.00,,---,0.00,VWS V14.01,2013-06-04 02:48:00,
2013-06-03 19:53:00,90.3,18.0,29.60,West,271,2.0,5.0,7,0.00,,---,0.00,VWS V14.01,2013-06-04 02:53:00,
2013-06-03 19:58:00,89.9,17.7,29.60,WSW,256,1.0,5.0,7,0.00,,---,0.00,VWS V14.01,2013-06-04 02:58:00,
2013-06-03 20:00:00,89.3,20.4,29.61,West,270,2.0,5.0,8,0.00,,---,0.00,VWS V14.01,2013-06-04 03:00:00,
2013-06-03 20:03:00,89.4,20.4,29.61,West,269,1.0,5.0,8,0.00,,---,0.00,VWS V14.01,2013-06-04 03:03:00,
2013-06-03 20:08:00,89.1,20.2,29.61,West,270,1.0,3.0,8,0.00,,---,0.00,VWS V14.01,2013-06-04 03:08:00,
2013-06-03 20:13:00,88.7,19.9,29.61,West,269,1.0,3.0,8,0.00,,---,0.00,VWS V14.01,2013-06-04 03:13:00,
2013-06-03 20:19:00,88.3,19.6,29.61,WSW,240,0.0,3.0,8,0.00,,---,0.00,VWS V14.01,2013-06-04 03:19:00,
2013-06-03 20:24:00,88.0,22.2,29.61,WSW,241,1.0,6.0,9,0.00,,---,0.00,VWS V14.01,2013-06-04 03:24:00,
2013-06-03 20:29:00,87.3,21.6,29.62,WSW,243,2.0,6.0,9,0.00,,---,0.00,VWS V14.01,2013-06-04 03:29:00,
2013-06-03 20:30:00,86.8,23.8,29.62,WSW,248,1.0,6.0,10,0.00,,---,0.00,VWS V14.01,2013-06-04 03:30:00,
2013-06-03 20:34:00,86.9,23.8,29.62,WSW,240,1.0,6.0,10,0.00,,---,0.00,VWS V14.01,2013-06-04 03:34:00,
2013-06-03 20:39:00,86.6,23.6,29.62,WSW,256,1.0,3.0,10,0.00,,---,0.00,VWS V14.01,2013-06-04 03:39:00,
2013-06-03 20:44:00,86.3,25.7,29.62,WSW,249,1.0,3.0,11,0.00,,---,0.00,VWS V14.01,2013-06-04 03:44:00,
2013-06-03 20:49:00,86.3,25.7,29.63,WSW,250,3.0,3.0,11,0.00,,---,0.00,VWS V14.01,2013-06-04 03:49:00,
2013-06-03 20:54:00,86.2,25.6,29.63,WSW,252,2.0,4.0,11,0.00,,---,0.00,VWS V14.01,2013-06-04 03:54:00,
2013-06-03 20:59:00,85.9,25.4,29.63,WSW,246,0.0,4.0,11,0.00,,---,0.00,VWS V14.01,2013-06-04 03:59:00,
2013-06-03 21:00:00,85.9,27.5,29.63,WSW,248,1.0,4.0,12,0.00,,---,0.00,VWS V14.01,2013-06-04 04:00:00,
2013-06-03 21:01:00,85.8,27.4,29.63,WSW,245,0.0,4.0,12,0.00,,---,0.00,VWS V14.01,2013-06-04 04:01:00,
2013-06-03 21:02:00,85.7,27.3,29.63,WNW,288,2.0,4.0,12,0.00,,---,0.00,VWS V14.01,2013-06-04 04:02:00,
2013-06-03 21:07:00,85.8,27.4,29.63,WSW,246,1.0,3.0,12,0.00,,---,0.00,VWS V14.01,2013-06-04 04:07:00,
2013-06-03 21:12:00,85.7,27.3,29.64,WSW,249,2.0,4.0,12,0.00,,---,0.00,VWS V14.01,2013-06-04 04:12:00,
2013-06-03 21:17:00,85.4,27.1,29.64,West,259,2.0,4.0,12,0.00,,---,0.00,VWS V14.01,2013-06-04 04:17:00,
2013-06-03 21:22:00,85.5,27.1,29.64,SW,228,1.0,5.0,12,0.00,,---,0.00,VWS V14.01,2013-06-04 04:22:00,
2013-06-03 21:27:00,85.2,26.9,29.64,SSE,156,0.0,5.0,12,0.00,,---,0.00,VWS V14.01,2013-06-04 04:27:00,
2013-06-03 21:30:00,84.7,26.5,29.64,WSW,248,1.0,5.0,12,0.00,,---,0.00,VWS V14.01,2013-06-04 04:30:00,
2013-06-03 21:33:00,84.8,26.6,29.64,SSE,167,0.0,5.0,12,0.00,,---,0.00,VWS V14.01,2013-06-04 04:33:00,
2013-06-03 21:38:00,84.5,26.4,29.65,SSW,201,0.0,1.0,12,0.00,,---,0.00,VWS V14.01,2013-06-04 04:38:00,
2013-06-03 21:43:00,83.9,27.8,29.65,SSW,201,0.0,1.0,13,0.00,,---,0.00,VWS V14.01,2013-06-04 04:43:00,
2013-06-03 21:48:00,83.3,27.4,29.65,SSW,195,0.0,1.0,13,0.00,,---,0.00,VWS V14.01,2013-06-04 04:48:00,
2013-06-03 21:53:00,82.9,27.1,29.66,SSW,195,0.0,1.0,13,0.00,,---,0.00,VWS V14.01,2013-06-04 04:53:00,
2013-06-03 21:58:00,82.6,26.8,29.66,South,191,0.0,1.0,13,0.00,,---,0.00,VWS V14.01,2013-06-04 04:58:00,
2013-06-03 22:00:00,82.3,26.6,29.66,SSW,202,0.0,1.0,13,0.00,,---,0.00,VWS V14.01,2013-06-04 05:00:00,
2013-06-03 22:03:00,82.3,26.6,29.66,South,190,0.0,1.0,13,0.00,,---,0.00,VWS V14.01,2013-06-04 05:03:00,
2013-06-03 22:08:00,82.3,26.6,29.66,South,189,0.0,0.0,13,0.00,,---,0.00,VWS V14.01,2013-06-04 05:08:00,
2013-06-03 22:13:00,82.4,26.7,29.66,South,190,0.0,0.0,13,0.00,,---,0.00,VWS V14.01,2013-06-04 05:13:00,
2013-06-03 22:18:00,82.3,26.6,29.66,South,189,0.0,0.0,13,0.00,,---,0.00,VWS V14.01,2013-06-04 05:18:00,
2013-06-03 22:24:00,82.3,26.6,29.67,SSW,205,1.0,1.0,13,0.00,,---,0.00,VWS V14.01,2013-06-04 05:24:00,
2013-06-03 22:29:00,82.2,26.5,29.67,SSW,206,0.0,1.0,13,0.00,,---,0.00,VWS V14.01,2013-06-04 05:29:00,
2013-06-03 22:30:00,82.1,26.4,29.67,SW,225,0.0,2.0,13,0.00,,---,0.00,VWS V14.01,2013-06-04 05:30:00,
2013-06-03 22:34:00,82.1,26.4,29.67,SSW,200,0.0,1.0,13,0.00,,---,0.00,VWS V14.01,2013-06-04 05:34:00,
2013-06-03 22:39:00,81.6,26.0,29.67,SSW,201,0.0,0.0,13,0.00,,---,0.00,VWS V14.01,2013-06-04 05:39:00,
2013-06-03 22:44:00,81.1,25.6,29.67,SSW,201,0.0,0.0,13,0.00,,---,0.00,VWS V14.01,2013-06-04 05:44:00,
2013-06-03 22:49:00,81.0,25.6,29.67,SSW,197,0.0,0.0,13,0.00,,---,0.00,VWS V14.01,2013-06-04 05:49:00,
2013-06-03 22:54:00,80.9,27.3,29.67,SSW,197,0.0,0.0,14,0.00,,---,0.00,VWS V14.01,2013-06-04 05:54:00,
2013-06-03 22:59:00,81.2,25.7,29.67,West,274,1.0,2.0,13,0.00,,---,0.00,VWS V14.01,2013-06-04 05:59:00,
2013-06-03 23:00:00,81.7,26.1,29.68,West,270,0.0,2.0,13,0.00,,---,0.00,VWS V14.01,2013-06-04 06:00:00,
2013-06-03 23:04:00,81.7,26.1,29.68,West,262,0.0,2.0,13,0.00,,---,0.00,VWS V14.01,2013-06-04 06:04:00,
2013-06-03 23:09:00,81.3,25.8,29.68,West,262,0.0,1.0,13,0.00,,---,0.00,VWS V14.01,2013-06-04 06:09:00,
2013-06-03 23:14:00,80.8,27.2,29.68,West,262,0.0,1.0,14,0.00,,---,0.00,VWS V14.01,2013-06-04 06:14:00,
2013-06-03 23:19:00,80.3,26.8,29.68,West,262,0.0,1.0,14,0.00,,---,0.00,VWS V14.01,2013-06-04 06:19:00,
2013-06-03 23:24:00,79.9,26.5,29.68,West,262,0.0,1.0,14,0.00,,---,0.00,VWS V14.01,2013-06-04 06:24:00,
2013-06-03 23:29:00,79.5,26.2,29.68,West,262,0.0,1.0,14,0.00,,---,0.00,VWS V14.01,2013-06-04 06:29:00,
2013-06-03 23:30:00,79.2,27.6,29.68,West,270,0.0,1.0,15,0.00,,---,0.00,VWS V14.01,2013-06-04 06:30:00,
2013-06-03 23:34:00,79.3,27.7,29.68,West,262,0.0,1.0,15,0.00,,---,0.00,VWS V14.01,2013-06-04 06:34:00,
2013-06-03 23:39:00,78.9,27.4,29.68,West,262,0.0,0.0,15,0.00,,---,0.00,VWS V14.01,2013-06-04 06:39:00,
2013-06-03 23:44:00,78.3,26.9,29.68,West,262,0.0,0.0,15,0.00,,---,0.00,VWS V14.01,2013-06-04 06:44:00,
2013-06-03 23:49:00,77.4,26.2,29.68,West,262,0.0,0.0,15,0.00,,---,0.00,VWS V14.01,2013-06-04 06:49:00,
2013-06-03 23:55:00,77.3,26.1,29.68,West,262,0.0,0.0,15,0.00,,---,0.00,VWS V14.01,2013-06-04 06:55:00,